createdAt,value
2023-04-10T00:00:07.097Z,43.42
2023-04-10T00:00:41.726Z,41.50
2023-04-10T00:01:13.971Z,42.45
2023-04-10T00:01:46.412Z,42.70
2023-04-10T00:02:18.858Z,43.45
2023-04-10T00:02:51.646Z,43.55
2023-04-10T00:03:24.759Z,44.45
2023-04-10T00:03:57.998Z,40.15
2023-04-10T00:04:30.842Z,43.40
2023-04-10T00:05:03.441Z,42.72
2023-04-10T00:05:35.771Z,42.00
2023-04-10T00:06:08.183Z,39.75
2023-04-10T00:06:41.913Z,42.33
2023-04-10T00:07:14.516Z,39.67
2023-04-10T00:07:46.830Z,42.08
2023-04-10T00:08:19.164Z,42.75
2023-04-10T00:08:51.543Z,40.67
2023-04-10T00:09:23.959Z,43.63
2023-04-10T00:09:56.225Z,44.28
2023-04-10T00:10:30.649Z,41.58
2023-04-10T00:11:03.475Z,41.30
2023-04-10T00:11:35.770Z,43.28
2023-04-10T00:12:08.094Z,45.95
2023-04-10T00:12:40.405Z,42.50
2023-04-10T00:13:12.774Z,44.85
2023-04-10T00:13:45.194Z,41.67
2023-04-10T00:14:23.251Z,47.72
2023-04-10T00:14:55.790Z,46.78
2023-04-10T00:15:28.999Z,44.33
2023-04-10T00:16:01.920Z,43.72
2023-04-10T00:16:34.520Z,43.72
2023-04-10T00:17:06.969Z,46.33
2023-04-10T00:17:39.425Z,47.53
2023-04-10T00:18:12.160Z,44.07
2023-04-10T00:18:44.563Z,41.00
2023-04-10T00:19:17.269Z,42.65
2023-04-10T00:19:49.534Z,44.92
2023-04-10T00:20:23.026Z,52.40
2023-04-10T00:20:55.324Z,51.13
2023-04-10T00:21:28.007Z,53.13
2023-04-10T00:22:00.495Z,51.78
2023-04-10T00:22:33.149Z,55.28
2023-04-10T00:23:05.588Z,57.38
2023-04-10T00:23:37.955Z,54.77
2023-04-10T00:24:10.325Z,62.08
2023-04-10T00:24:42.653Z,62.13
2023-04-10T00:25:15.005Z,66.05
2023-04-10T00:25:48.079Z,71.10
2023-04-10T00:26:21.384Z,61.35
2023-04-10T00:26:53.697Z,61.08
2023-04-10T00:27:26.104Z,56.78
2023-04-10T00:27:58.541Z,57.67
2023-04-10T00:28:30.856Z,58.15
2023-04-10T00:29:03.441Z,56.30
2023-04-10T00:29:35.969Z,53.42
2023-04-10T00:30:08.784Z,50.58
2023-04-10T00:30:41.091Z,50.83
2023-04-10T00:31:13.362Z,50.75
2023-04-10T00:31:45.899Z,48.33
2023-04-10T00:32:18.425Z,49.15
2023-04-10T00:32:50.925Z,46.33
2023-04-10T00:33:23.249Z,43.97
2023-04-10T00:33:55.902Z,42.75
2023-04-10T00:34:28.369Z,42.03
2023-04-10T00:35:00.817Z,42.63
2023-04-10T00:35:33.195Z,43.72
2023-04-10T00:36:05.592Z,42.38
2023-04-10T00:36:38.099Z,42.15
2023-04-10T00:37:10.807Z,44.92
2023-04-10T00:37:43.115Z,41.88
2023-04-10T00:38:15.692Z,42.10
2023-04-10T00:38:48.937Z,41.17
2023-04-10T00:39:21.307Z,41.63
2023-04-10T00:39:53.595Z,41.43
2023-04-10T00:40:26.199Z,41.17
2023-04-10T00:40:58.514Z,41.63
2023-04-10T00:41:30.927Z,41.00
2023-04-10T00:42:04.297Z,39.35
2023-04-10T00:42:36.749Z,38.85
2023-04-10T00:43:09.301Z,40.45
2023-04-10T00:43:41.836Z,41.22
2023-04-10T00:44:14.108Z,37.85
2023-04-10T00:44:46.395Z,39.65
2023-04-10T00:45:18.762Z,39.90
2023-04-10T00:45:51.279Z,40.17
2023-04-10T00:46:24.479Z,41.70
2023-04-10T00:46:56.899Z,40.50
2023-04-10T00:47:29.609Z,41.90
2023-04-10T00:48:02.449Z,38.63
2023-04-10T00:48:35.198Z,41.50
2023-04-10T00:49:09.757Z,39.22
2023-04-10T00:49:42.085Z,42.10
2023-04-10T00:50:14.429Z,40.65
2023-04-10T00:50:47.238Z,39.70
2023-04-10T00:51:20.976Z,41.63
2023-04-10T00:51:55.338Z,40.25
2023-04-10T00:52:29.027Z,41.92
2023-04-10T00:53:01.292Z,40.13
2023-04-10T00:53:33.744Z,46.28
2023-04-10T00:54:06.832Z,45.03
2023-04-10T00:54:40.003Z,43.35
2023-04-10T00:55:12.480Z,43.63
2023-04-10T00:55:45.468Z,47.88
2023-04-10T00:56:18.600Z,45.93
2023-04-10T00:56:51.256Z,45.03
2023-04-10T00:57:23.655Z,45.50
2023-04-10T00:57:56.676Z,44.08
2023-04-10T00:58:29.018Z,43.53
2023-04-10T00:59:05.119Z,45.40
2023-04-10T00:59:38.951Z,46.35
2023-04-10T01:00:11.799Z,46.63
2023-04-10T01:00:44.101Z,42.33
2023-04-10T01:01:16.510Z,45.58
2023-04-10T01:01:48.903Z,43.90
2023-04-10T01:02:21.620Z,45.83
2023-04-10T01:02:56.681Z,43.63
2023-04-10T01:03:29.429Z,42.85
2023-04-10T01:04:02.090Z,44.60
2023-04-10T01:04:35.283Z,44.90
2023-04-10T01:05:08.789Z,44.45
2023-04-10T01:05:59.091Z,43.58
2023-04-10T01:06:37.800Z,45.83
2023-04-10T01:07:28.444Z,43.05
2023-04-10T01:08:01.013Z,41.23
2023-04-10T01:08:36.253Z,42.28
2023-04-10T01:09:27.517Z,40.85
2023-04-10T01:10:14.984Z,42.58
2023-04-10T01:10:52.053Z,41.25
2023-04-10T01:11:48.528Z,41.08
2023-04-10T01:12:33.501Z,40.00
2023-04-10T01:13:09.088Z,41.30
2023-04-10T01:13:44.162Z,40.53
2023-04-10T01:14:19.365Z,39.17
2023-04-10T01:15:09.195Z,39.23
2023-04-10T01:16:01.764Z,41.28
2023-04-10T01:16:41.641Z,42.00
2023-04-10T01:17:19.265Z,42.58
2023-04-10T01:18:00.532Z,41.65
2023-04-10T01:18:44.470Z,42.78
2023-04-10T01:19:19.460Z,42.05
2023-04-10T01:19:54.569Z,44.63
2023-04-10T01:20:31.216Z,41.40
2023-04-10T01:21:05.840Z,44.65
2023-04-10T01:21:38.566Z,42.40
2023-04-10T01:22:13.786Z,44.30
2023-04-10T01:23:04.504Z,42.65
2023-04-10T01:23:55.813Z,41.10
2023-04-10T01:24:40.763Z,45.92
2023-04-10T01:25:21.894Z,43.13
2023-04-10T01:25:57.859Z,44.03
2023-04-10T01:26:39.678Z,47.72
2023-04-10T01:27:15.162Z,42.63
2023-04-10T01:27:57.448Z,42.65
2023-04-10T01:28:29.891Z,41.07
2023-04-10T01:29:06.602Z,45.88
2023-04-10T01:29:44.544Z,43.38
2023-04-10T01:30:18.631Z,43.53
2023-04-10T01:30:52.439Z,42.78
2023-04-10T01:31:32.381Z,44.28
2023-04-10T01:32:13.108Z,43.88
2023-04-10T01:32:46.181Z,44.38
2023-04-10T01:33:20.752Z,44.90
2023-04-10T01:33:56.358Z,46.95
2023-04-10T01:34:43.865Z,41.38
2023-04-10T01:35:16.929Z,42.35
2023-04-10T01:35:50.904Z,41.47
2023-04-10T01:36:26.424Z,44.72
2023-04-10T01:37:02.846Z,43.33
2023-04-10T01:37:37.934Z,45.67
2023-04-10T01:38:12.139Z,42.47
2023-04-10T01:38:45.191Z,43.72
2023-04-10T01:39:19.373Z,44.13
2023-04-10T01:39:54.784Z,43.33
2023-04-10T01:40:27.773Z,42.80
2023-04-10T01:41:00.850Z,42.20
2023-04-10T01:41:35.270Z,45.30
2023-04-10T01:42:09.356Z,44.05
2023-04-10T01:42:52.011Z,43.10
2023-04-10T01:43:26.539Z,42.70
2023-04-10T01:43:59.498Z,41.40
2023-04-10T01:44:32.784Z,43.08
2023-04-10T01:45:07.360Z,41.72
2023-04-10T01:45:41.898Z,41.53
2023-04-10T01:46:15.019Z,45.20
2023-04-10T01:46:49.043Z,43.67
2023-04-10T01:47:22.413Z,44.22
2023-04-10T01:47:58.284Z,43.67
2023-04-10T01:48:31.215Z,44.17
2023-04-10T01:49:03.859Z,45.72
2023-04-10T01:49:37.740Z,44.20
2023-04-10T01:50:12.246Z,46.20
2023-04-10T01:50:45.909Z,46.58
2023-04-10T01:51:18.397Z,51.28
2023-04-10T01:51:51.719Z,42.67
2023-04-10T01:52:25.264Z,44.33
2023-04-10T01:53:07.581Z,46.90
2023-04-10T01:53:42.091Z,43.17
2023-04-10T01:54:14.563Z,44.22
2023-04-10T01:54:49.172Z,43.83
2023-04-10T01:55:28.111Z,44.83
2023-04-10T01:56:07.347Z,41.65
2023-04-10T01:56:46.491Z,41.22
2023-04-10T01:57:21.499Z,41.10
2023-04-10T01:58:03.134Z,44.00
2023-04-10T01:58:35.828Z,43.83
2023-04-10T01:59:08.875Z,41.35
2023-04-10T01:59:41.244Z,44.42
2023-04-10T02:00:13.786Z,40.78
2023-04-10T02:00:48.871Z,42.28
2023-04-10T02:01:28.989Z,41.95
2023-04-10T02:02:02.397Z,42.30
2023-04-10T02:02:35.056Z,43.85
2023-04-10T02:03:07.824Z,43.40
2023-04-10T02:03:41.013Z,48.73
2023-04-10T02:04:13.514Z,42.33
2023-04-10T02:04:51.899Z,42.33
2023-04-10T02:05:28.615Z,44.05
2023-04-10T02:06:14.163Z,47.08
2023-04-10T02:07:07.549Z,43.92
2023-04-10T02:07:46.331Z,47.15
2023-04-10T02:08:46.470Z,46.55
2023-04-10T02:09:21.759Z,47.05
2023-04-10T02:09:59.897Z,49.55
2023-04-10T02:10:37.842Z,56.83
2023-04-10T02:11:23.429Z,49.35
2023-04-10T02:11:59.424Z,49.30
2023-04-10T02:12:37.349Z,48.65
2023-04-10T02:13:11.687Z,46.72
2023-04-10T02:13:44.252Z,50.28
2023-04-10T02:14:17.897Z,44.20
2023-04-10T02:14:50.958Z,45.65
2023-04-10T02:15:24.287Z,49.42
2023-04-10T02:15:57.717Z,48.30
2023-04-10T02:16:32.066Z,44.60
2023-04-10T02:17:04.573Z,46.00
2023-04-10T02:17:37.606Z,46.42
2023-04-10T02:18:11.713Z,44.38
2023-04-10T02:18:44.517Z,44.53
2023-04-10T02:19:17.735Z,43.45
2023-04-10T02:19:51.369Z,43.78
2023-04-10T02:20:24.710Z,44.00
2023-04-10T02:20:57.384Z,44.40
2023-04-10T02:21:29.753Z,47.50
2023-04-10T02:22:02.826Z,43.60
2023-04-10T02:22:35.493Z,42.70
2023-04-10T02:23:08.098Z,43.22
2023-04-10T02:23:40.912Z,43.38
2023-04-10T02:24:13.235Z,45.55
2023-04-10T02:24:45.676Z,43.60
2023-04-10T02:25:18.066Z,45.38
2023-04-10T02:25:50.480Z,44.95
2023-04-10T02:26:22.770Z,44.53
2023-04-10T02:26:55.235Z,47.75
2023-04-10T02:27:32.345Z,41.30
2023-04-10T02:28:05.542Z,44.58
2023-04-10T02:28:38.926Z,41.45
2023-04-10T02:29:12.325Z,42.05
2023-04-10T02:29:44.584Z,40.78
2023-04-10T02:30:16.876Z,43.28
2023-04-10T02:30:50.076Z,43.25
2023-04-10T02:31:22.736Z,41.55
2023-04-10T02:31:55.112Z,44.17
2023-04-10T02:32:27.619Z,43.63
2023-04-10T02:33:00.181Z,41.07
2023-04-10T02:33:34.394Z,42.22
2023-04-10T02:34:07.407Z,42.03
2023-04-10T02:34:39.819Z,41.10
2023-04-10T02:35:12.331Z,43.75
2023-04-10T02:35:44.694Z,38.58
2023-04-10T02:36:17.055Z,41.80
2023-04-10T02:36:49.477Z,41.10
2023-04-10T02:37:22.049Z,41.97
2023-04-10T02:37:55.726Z,41.85
2023-04-10T02:38:28.477Z,40.47
2023-04-10T02:39:01.273Z,39.85
2023-04-10T02:39:33.877Z,43.65
2023-04-10T02:40:06.689Z,41.50
2023-04-10T02:40:48.350Z,38.35
2023-04-10T02:41:22.557Z,39.20
2023-04-10T02:41:54.831Z,41.72
2023-04-10T02:42:27.880Z,41.70
2023-04-10T02:43:03.522Z,42.83
2023-04-10T02:43:36.221Z,45.05
2023-04-10T02:44:08.962Z,40.97
2023-04-10T02:44:41.528Z,43.35
2023-04-10T02:45:13.891Z,42.22
2023-04-10T02:45:48.392Z,39.67
2023-04-10T02:46:27.227Z,42.83
2023-04-10T02:46:59.616Z,44.78
2023-04-10T02:47:32.513Z,43.13
2023-04-10T02:48:08.161Z,40.78
2023-04-10T02:48:40.606Z,42.28
2023-04-10T02:49:12.888Z,41.80
2023-04-10T02:49:45.302Z,45.50
2023-04-10T02:50:20.728Z,42.03
2023-04-10T02:50:56.825Z,41.65
2023-04-10T02:51:29.279Z,38.75
2023-04-10T02:52:01.841Z,42.80
2023-04-10T02:52:34.365Z,42.20
2023-04-10T02:53:06.651Z,40.75
2023-04-10T02:53:39.065Z,43.60
2023-04-10T02:54:11.792Z,43.47
2023-04-10T02:54:46.570Z,41.00
2023-04-10T02:55:18.922Z,37.17
2023-04-10T02:55:51.286Z,43.80
2023-04-10T02:56:23.616Z,40.05
2023-04-10T02:56:57.161Z,45.97
2023-04-10T02:57:29.485Z,45.83
2023-04-10T02:58:01.784Z,43.80
2023-04-10T02:58:34.262Z,43.05
2023-04-10T02:59:07.567Z,44.25
2023-04-10T02:59:39.850Z,40.85
2023-04-10T03:00:12.824Z,43.75
2023-04-10T03:01:03.406Z,42.37
2023-04-10T03:01:47.740Z,43.40
2023-04-10T03:02:20.604Z,41.47
2023-04-10T03:02:53.977Z,38.25
2023-04-10T03:03:27.438Z,44.38
2023-04-10T03:04:03.162Z,40.25
2023-04-10T03:04:40.893Z,42.65
2023-04-10T03:05:13.332Z,43.03
2023-04-10T03:05:47.292Z,42.80
2023-04-10T03:06:21.161Z,41.38
2023-04-10T03:06:53.576Z,45.23
2023-04-10T03:07:26.310Z,42.45
2023-04-10T03:07:59.170Z,42.67
2023-04-10T03:08:31.572Z,42.53
2023-04-10T03:09:04.294Z,43.65
2023-04-10T03:09:38.087Z,41.67
2023-04-10T03:10:10.482Z,38.25
2023-04-10T03:10:46.312Z,44.28
2023-04-10T03:11:18.624Z,44.63
2023-04-10T03:11:50.958Z,43.30
2023-04-10T03:12:23.416Z,42.60
2023-04-10T03:12:56.127Z,42.00
2023-04-10T03:13:28.545Z,45.25
2023-04-10T03:14:01.368Z,39.38
2023-04-10T03:14:33.871Z,42.33
2023-04-10T03:15:06.471Z,43.30
2023-04-10T03:15:39.049Z,40.95
2023-04-10T03:16:11.412Z,40.13
2023-04-10T03:16:44.564Z,43.45
2023-04-10T03:17:16.843Z,43.80
2023-04-10T03:17:50.778Z,42.03
2023-04-10T03:18:23.127Z,43.78
2023-04-10T03:18:57.951Z,42.92
2023-04-10T03:19:30.510Z,43.65
2023-04-10T03:20:02.874Z,44.38
2023-04-10T03:20:40.256Z,43.53
2023-04-10T03:21:12.639Z,43.08
2023-04-10T03:21:45.772Z,42.03
2023-04-10T03:22:18.051Z,46.92
2023-04-10T03:22:51.121Z,45.00
2023-04-10T03:23:23.979Z,42.53
2023-04-10T03:23:56.606Z,40.97
2023-04-10T03:24:29.202Z,48.20
2023-04-10T03:25:02.794Z,43.90
2023-04-10T03:25:36.821Z,49.30
2023-04-10T03:26:10.823Z,45.47
2023-04-10T03:26:43.893Z,47.50
2023-04-10T03:27:16.847Z,44.60
2023-04-10T03:27:49.131Z,41.72
2023-04-10T03:28:21.749Z,40.97
2023-04-10T03:28:54.025Z,42.30
2023-04-10T03:29:26.582Z,41.35
2023-04-10T03:30:01.805Z,45.67
2023-04-10T03:30:38.644Z,43.33
2023-04-10T03:31:12.718Z,40.33
2023-04-10T03:31:47.109Z,41.97
2023-04-10T03:32:19.619Z,42.40
2023-04-10T03:32:51.947Z,44.58
2023-04-10T03:33:24.648Z,43.63
2023-04-10T03:33:57.453Z,41.17
2023-04-10T03:34:30.528Z,45.53
2023-04-10T03:35:03.019Z,43.28
2023-04-10T03:35:35.519Z,45.28
2023-04-10T03:36:08.337Z,39.67
2023-04-10T03:36:40.765Z,43.28
2023-04-10T03:37:13.644Z,45.78
2023-04-10T03:37:46.725Z,44.42
2023-04-10T03:38:19.828Z,43.83
2023-04-10T03:38:53.076Z,45.35
2023-04-10T03:39:25.863Z,44.90
2023-04-10T03:39:59.220Z,43.63
2023-04-10T03:40:31.646Z,42.30
2023-04-10T03:41:04.101Z,45.88
2023-04-10T03:41:37.890Z,46.22
2023-04-10T03:42:10.165Z,44.40
2023-04-10T03:42:42.722Z,42.05
2023-04-10T03:43:16.398Z,43.15
2023-04-10T03:43:48.803Z,47.25
2023-04-10T03:44:22.692Z,40.60
2023-04-10T03:44:54.945Z,41.47
2023-04-10T03:45:27.408Z,43.20
2023-04-10T03:45:59.757Z,40.60
2023-04-10T03:46:32.250Z,40.97
2023-04-10T03:47:05.873Z,45.22
2023-04-10T03:47:38.317Z,43.70
2023-04-10T03:48:13.257Z,41.50
2023-04-10T03:48:53.353Z,46.10
2023-04-10T03:49:26.310Z,40.45
2023-04-10T03:50:07.057Z,40.38
2023-04-10T03:50:46.762Z,41.83
2023-04-10T03:51:19.443Z,42.27
2023-04-10T03:51:51.732Z,44.50
2023-04-10T03:52:24.058Z,43.88
2023-04-10T03:52:56.412Z,42.92
2023-04-10T03:53:30.602Z,40.08
2023-04-10T03:54:03.318Z,42.88
2023-04-10T03:54:35.733Z,42.85
2023-04-10T03:55:08.534Z,40.67
2023-04-10T03:55:41.496Z,42.22
2023-04-10T03:56:14.846Z,39.85
2023-04-10T03:56:47.647Z,40.40
2023-04-10T03:57:21.351Z,40.50
2023-04-10T03:57:54.549Z,42.08
2023-04-10T03:58:29.351Z,42.88
2023-04-10T03:59:02.223Z,44.40
2023-04-10T03:59:38.839Z,44.05
2023-04-10T04:00:17.000Z,41.75
2023-04-10T04:00:55.170Z,42.70
2023-04-10T04:01:39.658Z,44.33
2023-04-10T04:02:15.920Z,42.22
2023-04-10T04:02:52.458Z,42.33
2023-04-10T04:03:38.746Z,42.58
2023-04-10T04:04:31.671Z,39.88
2023-04-10T04:05:25.385Z,43.60
2023-04-10T04:06:27.623Z,44.33
2023-04-10T04:07:23.364Z,40.70
2023-04-10T04:08:06.956Z,42.65
2023-04-10T04:08:57.679Z,40.17
2023-04-10T04:10:05.559Z,41.97
2023-04-10T04:11:10.122Z,39.00
2023-04-10T04:12:00.949Z,41.83
2023-04-10T04:13:08.578Z,38.38
2023-04-10T04:13:54.937Z,44.67
2023-04-10T04:14:56.443Z,43.65
2023-04-10T04:15:49.224Z,42.85
2023-04-10T04:16:26.287Z,44.83
2023-04-10T04:17:15.754Z,44.25
2023-04-10T04:18:20.295Z,39.05
2023-04-10T04:18:57.964Z,41.47
2023-04-10T04:19:44.266Z,42.67
2023-04-10T04:20:23.913Z,41.58
2023-04-10T04:21:16.490Z,43.03
2023-04-10T04:22:05.367Z,44.15
2023-04-10T04:23:07.023Z,40.58
2023-04-10T04:23:57.618Z,44.00
2023-04-10T04:24:37.066Z,41.38
2023-04-10T04:25:22.619Z,44.42
2023-04-10T04:26:07.193Z,43.33
2023-04-10T04:27:17.916Z,41.30
2023-04-10T04:27:59.794Z,41.30
2023-04-10T04:28:37.734Z,45.03
2023-04-10T04:29:19.085Z,41.45
2023-04-10T04:30:08.369Z,40.80
2023-04-10T04:30:54.849Z,42.22
2023-04-10T04:31:32.980Z,46.97
2023-04-10T04:32:31.353Z,42.33
2023-04-10T04:33:29.378Z,43.20
2023-04-10T04:34:05.515Z,45.47
2023-04-10T04:34:46.878Z,44.08
2023-04-10T04:35:32.645Z,42.75
2023-04-10T04:36:34.194Z,42.77
2023-04-10T04:37:40.167Z,43.78
2023-04-10T04:38:41.813Z,40.78
2023-04-10T04:39:23.633Z,40.47
2023-04-10T04:40:14.634Z,39.20
2023-04-10T04:41:13.285Z,40.00
2023-04-10T04:42:08.557Z,45.65
2023-04-10T04:42:53.078Z,40.72
2023-04-10T04:43:53.607Z,41.30
2023-04-10T04:44:47.672Z,44.90
2023-04-10T04:45:38.645Z,42.05
2023-04-10T04:46:20.268Z,48.60
2023-04-10T04:47:01.582Z,42.10
2023-04-10T04:47:33.917Z,47.63
2023-04-10T04:48:15.865Z,46.38
2023-04-10T04:49:17.432Z,46.88
2023-04-10T04:49:57.058Z,45.65
2023-04-10T04:50:49.604Z,48.30
2023-04-10T04:51:48.018Z,50.40
2023-04-10T04:52:35.455Z,44.67
2023-04-10T04:53:28.190Z,50.97
2023-04-10T04:54:26.534Z,47.13
2023-04-10T04:55:17.284Z,50.05
2023-04-10T04:56:03.273Z,49.88
2023-04-10T04:56:53.922Z,49.75
2023-04-10T04:57:34.105Z,51.42
2023-04-10T04:58:15.165Z,54.10
2023-04-10T04:59:15.204Z,51.33
2023-04-10T05:00:06.786Z,50.15
2023-04-10T05:01:07.965Z,47.63
2023-04-10T05:02:12.016Z,44.70
2023-04-10T05:03:06.520Z,46.45
2023-04-10T05:03:42.909Z,46.63
2023-04-10T05:04:40.412Z,41.97
2023-04-10T05:05:33.026Z,51.92
2023-04-10T05:06:28.291Z,57.58
2023-04-10T05:07:23.416Z,54.45
2023-04-10T05:08:01.563Z,56.13
2023-04-10T05:09:06.661Z,54.33
2023-04-10T05:10:01.782Z,52.83
2023-04-10T05:10:56.921Z,43.70
2023-04-10T05:11:47.857Z,51.67
2023-04-10T05:12:32.308Z,47.90
2023-04-10T05:13:09.655Z,48.63
2023-04-10T05:14:06.188Z,44.17
2023-04-10T05:14:56.506Z,44.97
2023-04-10T05:15:47.267Z,46.53
2023-04-10T05:16:39.957Z,43.30
2023-04-10T05:17:29.035Z,46.33
2023-04-10T05:18:23.908Z,44.88
2023-04-10T05:19:14.365Z,42.60
2023-04-10T05:19:59.515Z,42.25
2023-04-10T05:21:00.831Z,42.85
2023-04-10T05:22:06.459Z,45.55
2023-04-10T05:22:58.398Z,44.50
2023-04-10T05:23:56.824Z,44.17
2023-04-10T05:24:37.404Z,42.03
2023-04-10T05:25:19.445Z,46.88
2023-04-10T05:26:09.269Z,40.67
2023-04-10T05:27:00.004Z,44.45
2023-04-10T05:27:46.800Z,45.03
2023-04-10T05:28:48.277Z,44.20
2023-04-10T05:29:42.231Z,42.58
2023-04-10T05:30:22.592Z,44.85
2023-04-10T05:31:00.813Z,46.35
2023-04-10T05:31:33.215Z,47.92
2023-04-10T05:32:25.267Z,46.25
2023-04-10T05:33:29.788Z,46.10
2023-04-10T05:34:15.910Z,50.83
2023-04-10T05:35:08.696Z,44.28
2023-04-10T05:35:53.582Z,43.73
2023-04-10T05:36:44.832Z,45.83
2023-04-10T05:37:27.610Z,46.33
2023-04-10T05:38:12.190Z,42.97
2023-04-10T05:39:03.475Z,41.33
2023-04-10T05:40:00.176Z,43.78
2023-04-10T05:40:32.572Z,46.55
2023-04-10T05:41:26.602Z,43.03
2023-04-10T05:42:22.684Z,40.75
2023-04-10T05:43:12.644Z,38.80
2023-04-10T05:44:07.015Z,42.43
2023-04-10T05:45:01.990Z,42.08
2023-04-10T05:45:52.889Z,40.17
2023-04-10T05:46:43.772Z,41.45
2023-04-10T05:47:39.464Z,42.45
2023-04-10T05:48:31.378Z,40.38
2023-04-10T05:49:29.093Z,40.83
2023-04-10T05:50:23.062Z,40.72
2023-04-10T05:51:16.581Z,43.60
2023-04-10T05:52:24.217Z,41.80
2023-04-10T05:53:25.608Z,36.47
2023-04-10T05:54:06.808Z,38.95
2023-04-10T05:55:14.451Z,34.88
2023-04-10T05:55:51.496Z,45.95
2023-04-10T05:56:50.200Z,44.40
2023-04-10T05:57:47.055Z,41.60
2023-04-10T05:58:51.345Z,42.63
2023-04-10T05:59:40.533Z,41.10
2023-04-10T06:00:24.768Z,48.47
2023-04-10T06:01:26.727Z,42.35
2023-04-10T06:02:03.864Z,41.83
2023-04-10T06:02:36.393Z,43.80
2023-04-10T06:03:10.085Z,41.95
2023-04-10T06:03:52.528Z,41.88
2023-04-10T06:04:26.766Z,43.38
2023-04-10T06:05:02.109Z,42.50
2023-04-10T06:05:37.067Z,44.13
2023-04-10T06:06:11.623Z,43.03
2023-04-10T06:06:44.759Z,44.00
2023-04-10T06:07:17.109Z,43.90
2023-04-10T06:07:49.494Z,44.40
2023-04-10T06:08:23.036Z,43.72
2023-04-10T06:08:55.573Z,41.72
2023-04-10T06:09:28.012Z,41.05
2023-04-10T06:10:00.637Z,46.58
2023-04-10T06:10:33.036Z,40.88
2023-04-10T06:11:05.680Z,42.78
2023-04-10T06:11:38.164Z,40.47
2023-04-10T06:12:10.674Z,44.25
2023-04-10T06:12:45.446Z,43.25
2023-04-10T06:13:19.281Z,41.77
2023-04-10T06:13:51.661Z,41.95
2023-04-10T06:14:26.731Z,43.05
2023-04-10T06:14:59.018Z,42.15
2023-04-10T06:15:31.804Z,41.70
2023-04-10T06:16:04.452Z,42.20
2023-04-10T06:16:38.013Z,42.22
2023-04-10T06:17:10.617Z,42.90
2023-04-10T06:17:43.997Z,42.80
2023-04-10T06:18:16.345Z,43.00
2023-04-10T06:18:48.726Z,42.70
2023-04-10T06:19:21.240Z,43.00
2023-04-10T06:19:53.581Z,45.42
2023-04-10T06:20:25.877Z,43.67
2023-04-10T06:21:00.600Z,43.10
2023-04-10T06:21:32.977Z,43.40
2023-04-10T06:22:06.010Z,44.03
2023-04-10T06:22:38.397Z,42.30
2023-04-10T06:23:12.697Z,45.80
2023-04-10T06:23:45.098Z,45.40
2023-04-10T06:24:17.465Z,44.50
2023-04-10T06:24:52.585Z,40.30
2023-04-10T06:25:25.127Z,44.45
2023-04-10T06:25:57.649Z,41.88
2023-04-10T06:26:30.121Z,44.22
2023-04-10T06:27:02.674Z,43.40
2023-04-10T06:27:38.128Z,44.35
2023-04-10T06:28:13.969Z,46.03
2023-04-10T06:28:49.199Z,41.47
2023-04-10T06:29:21.717Z,40.53
2023-04-10T06:29:54.342Z,45.47
2023-04-10T06:30:28.840Z,42.35
2023-04-10T06:31:04.450Z,42.22
2023-04-10T06:31:39.918Z,41.40
2023-04-10T06:32:13.045Z,40.28
2023-04-10T06:32:45.964Z,42.22
2023-04-10T06:33:18.660Z,45.17
2023-04-10T06:33:51.714Z,44.33
2023-04-10T06:34:24.186Z,44.13
2023-04-10T06:35:04.415Z,46.00
2023-04-10T06:35:37.888Z,41.40
2023-04-10T06:36:10.857Z,42.63
2023-04-10T06:36:49.796Z,42.30
2023-04-10T06:37:27.662Z,45.47
2023-04-10T06:38:00.021Z,41.78
2023-04-10T06:38:34.282Z,42.10
2023-04-10T06:39:06.881Z,38.97
2023-04-10T06:39:39.598Z,43.15
2023-04-10T06:40:13.601Z,45.03
2023-04-10T06:40:46.045Z,43.83
2023-04-10T06:41:18.474Z,42.90
2023-04-10T06:41:51.210Z,42.33
2023-04-10T06:42:35.526Z,40.13
2023-04-10T06:43:14.338Z,41.10
2023-04-10T06:43:46.646Z,44.75
2023-04-10T06:44:19.085Z,43.05
2023-04-10T06:44:51.369Z,43.15
2023-04-10T06:45:23.808Z,44.78
2023-04-10T06:45:56.104Z,40.35
2023-04-10T06:46:28.390Z,43.33
2023-04-10T06:47:00.830Z,40.50
2023-04-10T06:47:33.191Z,46.03
2023-04-10T06:48:06.019Z,45.25
2023-04-10T06:48:38.340Z,41.80
2023-04-10T06:49:10.652Z,44.05
2023-04-10T06:49:42.948Z,41.47
2023-04-10T06:50:15.260Z,45.45
2023-04-10T06:50:47.622Z,45.95
2023-04-10T06:51:19.886Z,42.42
2023-04-10T06:51:52.255Z,44.00
2023-04-10T06:52:24.528Z,41.50
2023-04-10T06:53:00.037Z,41.95
2023-04-10T06:53:32.455Z,42.60
2023-04-10T06:54:04.760Z,39.95
2023-04-10T06:54:37.034Z,39.88
2023-04-10T06:55:09.842Z,43.55
2023-04-10T06:55:42.369Z,47.22
2023-04-10T06:56:14.732Z,46.22
2023-04-10T06:56:47.077Z,43.72
2023-04-10T06:57:19.391Z,45.33
2023-04-10T06:57:51.709Z,43.00
2023-04-10T06:58:24.807Z,46.30
2023-04-10T06:58:57.885Z,41.13
2023-04-10T06:59:30.156Z,46.58
2023-04-10T07:00:02.431Z,42.58
2023-04-10T07:00:34.963Z,44.65
2023-04-10T07:01:07.408Z,43.72
2023-04-10T07:01:39.999Z,41.85
2023-04-10T07:02:12.371Z,42.95
2023-04-10T07:02:44.815Z,44.90
2023-04-10T07:03:17.218Z,42.17
2023-04-10T07:03:49.784Z,44.60
2023-04-10T07:04:22.202Z,40.45
2023-04-10T07:09:10.508Z,33.83
2023-04-10T07:09:44.032Z,36.33
2023-04-10T07:10:16.439Z,35.70
2023-04-10T07:10:48.919Z,37.67
2023-04-10T07:11:21.260Z,35.63
2023-04-10T07:11:53.647Z,40.60
2023-04-10T07:12:27.084Z,40.38
2023-04-10T07:12:59.570Z,39.67
2023-04-10T07:13:32.041Z,39.25
2023-04-10T07:14:04.492Z,41.00
2023-04-10T07:14:37.019Z,38.33
2023-04-10T07:15:09.552Z,38.58
2023-04-10T07:15:42.003Z,38.40
2023-04-10T07:16:14.512Z,35.25
2023-04-10T07:16:46.987Z,38.80
2023-04-10T07:17:19.723Z,41.57
2023-04-10T07:17:52.209Z,37.33
2023-04-10T07:18:25.009Z,38.53
2023-04-10T07:18:57.489Z,38.80
2023-04-10T07:19:30.040Z,39.28
2023-04-10T07:20:02.777Z,39.65
2023-04-10T07:20:35.139Z,39.97
2023-04-10T07:21:11.613Z,42.53
2023-04-10T07:21:44.343Z,38.40
2023-04-10T07:22:49.749Z,41.00
2023-04-10T07:23:22.947Z,40.30
2023-04-10T07:23:55.651Z,41.70
2023-04-10T07:24:28.445Z,41.50
2023-04-10T07:25:01.177Z,42.67
2023-04-10T07:25:34.014Z,42.88
2023-04-10T07:26:06.532Z,42.45
2023-04-10T07:26:38.858Z,40.17
2023-04-10T07:27:12.546Z,40.20
2023-04-10T07:27:44.883Z,44.70
2023-04-10T07:28:17.329Z,42.65
2023-04-10T07:28:49.864Z,43.17
2023-04-10T07:29:22.272Z,43.03
2023-04-10T07:29:55.425Z,40.25
2023-04-10T07:30:27.765Z,38.83
2023-04-10T07:31:00.134Z,39.67
2023-04-10T07:31:32.655Z,40.08
2023-04-10T07:32:05.469Z,37.25
2023-04-10T07:32:40.045Z,37.28
2023-04-10T07:33:12.784Z,39.47
2023-04-10T07:33:48.185Z,35.45
2023-04-10T07:34:20.595Z,39.05
2023-04-10T07:34:52.915Z,42.45
2023-04-10T07:35:25.445Z,41.67
2023-04-10T07:35:57.953Z,40.53
2023-04-10T07:36:30.385Z,38.13
2023-04-10T07:37:02.725Z,38.83
2023-04-10T07:37:35.104Z,37.45
2023-04-10T07:38:07.407Z,37.08
2023-04-10T07:38:39.721Z,37.63
2023-04-10T07:39:12.095Z,38.30
2023-04-10T07:39:45.074Z,37.05
2023-04-10T07:40:17.404Z,36.75
2023-04-10T07:40:49.829Z,33.85
2023-04-10T07:41:22.527Z,38.60
2023-04-10T07:41:55.533Z,37.70
2023-04-10T07:42:27.935Z,36.25
2023-04-10T07:43:00.228Z,38.38
2023-04-10T07:43:32.540Z,36.20
2023-04-10T07:44:04.939Z,36.00
2023-04-10T07:44:37.189Z,35.97
2023-04-10T07:45:09.676Z,36.30
2023-04-10T07:45:42.207Z,40.00
2023-04-10T07:46:14.728Z,38.83
2023-04-10T07:46:47.744Z,36.85
2023-04-10T07:47:20.240Z,33.30
2023-04-10T07:47:52.826Z,35.47
2023-04-10T07:48:25.256Z,36.67
2023-04-10T07:48:57.710Z,36.33
2023-04-10T07:49:30.054Z,33.27
2023-04-10T07:50:02.930Z,35.40
2023-04-10T07:50:36.860Z,36.05
2023-04-10T07:51:10.073Z,36.05
2023-04-10T07:51:42.363Z,33.97
2023-04-10T07:52:14.665Z,36.08
2023-04-10T07:52:46.945Z,35.58
2023-04-10T07:53:19.341Z,38.90
2023-04-10T07:53:52.072Z,38.72
2023-04-10T07:54:24.540Z,36.95
2023-04-10T07:54:56.937Z,35.77
2023-04-10T07:55:29.238Z,35.00
2023-04-10T07:56:01.901Z,35.20
2023-04-10T07:56:34.996Z,32.60
2023-04-10T07:57:07.324Z,31.35
2023-04-10T07:57:41.715Z,31.55
2023-04-10T07:58:14.874Z,33.15
2023-04-10T07:58:47.606Z,35.95
2023-04-10T07:59:20.017Z,36.28
2023-04-10T07:59:52.999Z,34.50
2023-04-10T08:00:25.454Z,36.00
2023-04-10T08:00:57.852Z,35.92
2023-04-10T08:01:30.292Z,34.00
2023-04-10T08:02:02.771Z,39.05